Avery Island, LA

08:03 CDT le 23 octobre 2014 (GMT -0500)
Acadiana Regional | Change Station
CLOSE
Current Station
Aéroport
Location: New Iberia,
Altitude: 23 ft
Stations météo à proximité

Alt. 23 ft 30.04 °N, 91.88 °W | Updated 10 minutes ago

Ciel dégagé
Ciel dégagé
57 ° F
Paraît 57 ° F
N
6
Vent Variable Vent de NE

Aujourd'hui
Haut(e) -- | Bas -- ° F
--% Risque de précip.
Hier
Haut(e) -- | Bas -- ° F
Precip. -- pouce
7:14 AM 6:28 PM
Lune descendante, 0% visible
Pression 30.11 pouce
Visibilité 10.0 Miles terrestres
Nuages Ciel dégagé
Point de rosée 50 ° F
Humidité 77%
Précipitations 0.00 pouce
Profondeur de la couche neigeuse Non disponible.
UV 0 sur 12
Pollen 2.90 sur 12
Qualité de l'air Non disponible.
Flu Activity Sporadic
METAR KARA 231253Z 05005KT 10SM CLR 14/10 A3011 RMK AO2 SLP194 T01390100

More Conditions Fewer Conditions

Pression 30.11 pouce
Visibilité 10.0 Miles terrestres
Nuages Ciel dégagé
Point de rosée 50 ° F
Humidité 77%
Précipitations 0.00 pouce
Profondeur de la couche neigeuse Non disponible.
UV 0 sur 12
Pollen 2.90 sur 12
Qualité de l'air Non disponible.
Flu Activity Sporadic
METAR KARA 231253Z 05005KT 10SM CLR 14/10 A3011 RMK AO2 SLP194 T01390100

More Conditions Fewer Conditions

10-Day Weather Forecast

Almanac

Astronomie

Oct. 23, 2014 Lever Coucher
Temps réel 07:14 CDT 18:28 CDT
Crépuscule civil 06:50 CDT 18:52 CDT
Crépuscule nautique 06:22 CDT 19:20 CDT
Crépuscule astronomique 05:54 CDT 19:48 CDT
Lune 06:56 CDT 18:30 CDT
Durée de lumière visible 12h 02m
Longueur du jour
11h 13m
Tomorrow will be 1m 40s shorter.
Lune descendante, 0% of the Moon is Illuminated
Aujourd'hui
Lune descendante
Oct 23
Nouveau
Oct 30
Premier quartier
Nov 6
Pleine lune
Nov 14
Dernier quartier

Extrêmes aujourd'hui

State Highs State Lows

Community

WunderPhotos

Upload Photos

1,764,222 Photos téléchargées !

Nearby

Épaisseur de neige

Station Depth Altitude
Pas de nouvelles chutes de neige

Activité sismique

Ville Distance Mag. Time & Date
No recent earthquake activity has been reported nearby.
Minimum magnitude displayed is 2.5.

Températures des eaux côtières

Lieu Température
Fresh Water Canal Locks, LA 75.0 ° F
Amerada Pass, LA 69.1 ° F

Stations météo à proximité